CIE weather

Collie Airport
Collie, Western Australia, Australia

Public forecast

Using degrees Celsius for public forecast. Weather courtesy of forecast.io.

METAR (pilot weather report)

Closest report is Perth Jandakot Airport, 78.1 nm (144.6 km) NNW. Retrieved 2019/09/18 16:30 UTC (15 minutes ago):

YPJT 181630Z AUTO 22018KT 9999 // SCT033 SCT039 SCT055 14/08 Q1014

TAF (pilot weather forecast)

Forecast is more than 12 hours old.

Closest forecast is Perth Jandakot Airport, 78.1 nm (144.6 km) NNW. Retrieved 2019/09/17 22:00 UTC (19 hours ago):

TAF YPJT 172255Z 1722/1818 31008KT 9999 SCT040 FM180400 29018G28KT 9999 -SHRA SCT040 BECMG 1811/1813 23014G25KT 9999 -SHRA BKN020 FM181600 21014KT 9999 -SHRA BKN035 INTER 1808/1811 27025G35KT 4000 SHRA SCT015 BKN020 INTER 1811/1816 25025G35KT 3000 SHRA BKN010 INTER 1816/1818 5000 SHRA SCT018